AFR7501 LSGG-LFMN
Flight info
| Callsign | AFR7501 |
|---|---|
| Flight time | 0h 46m |
| Altitude | 23000 |
| Route | MEDAM1A/22 MEDAM DCT VEVAR |
| Aircraft | A320/M-SDE3FGHIRWY/LB1 |
Departure
| Time | 2026-05-05 19:09 |
|---|---|
| Airport | Geneva International Airport (LSGG) |
Arrival
| Time | 2026-05-05 19:55 |
|---|---|
| Airport | Nice-Côte d'Azur Airport (LFMN) |
| Time | Latitude | Longitude | Altitude | Speed | Heading |
|---|---|---|---|---|---|
| 2026-05-05 18:26 | 46.23817 | 6.11416 | 1377 ft | 0 kts | 136° |
| 2026-05-05 18:59 | 46.23831 | 6.11395 | 1373 ft | 4 kts | 132° |
| 2026-05-05 18:59 | 46.23848 | 6.11365 | 1376 ft | 4 kts | 122° |
| 2026-05-05 18:59 | 46.23860 | 6.11331 | 1375 ft | 4 kts | 98° |
| 2026-05-05 19:00 | 46.23857 | 6.11302 | 1379 ft | 1 kts | 46° |
| 2026-05-05 19:00 | 46.23853 | 6.11297 | 1379 ft | 0 kts | 46° |
| 2026-05-05 19:02 | 46.23856 | 6.11301 | 1379 ft | 3 kts | 45° |
| 2026-05-05 19:02 | 46.23888 | 6.11347 | 1377 ft | 10 kts | 45° |
| 2026-05-05 19:03 | 46.23958 | 6.11459 | 1374 ft | 20 kts | 51° |
| 2026-05-05 19:03 | 46.24071 | 6.11606 | 1372 ft | 23 kts | 48° |
| 2026-05-05 19:03 | 46.24169 | 6.11796 | 1367 ft | 25 kts | 41° |
| 2026-05-05 19:03 | 46.24300 | 6.11965 | 1366 ft | 25 kts | 44° |
| 2026-05-05 19:04 | 46.24423 | 6.12148 | 1369 ft | 25 kts | 42° |
| 2026-05-05 19:04 | 46.24554 | 6.12330 | 1367 ft | 24 kts | 46° |
| 2026-05-05 19:04 | 46.24663 | 6.12490 | 1361 ft | 19 kts | 41° |
| 2026-05-05 19:04 | 46.24750 | 6.12608 | 1359 ft | 15 kts | 45° |
| 2026-05-05 19:05 | 46.24841 | 6.12685 | 1356 ft | 16 kts | 20° |
| 2026-05-05 19:05 | 46.24911 | 6.12717 | 1356 ft | 0 kts | 17° |
| 2026-05-05 19:07 | 46.24916 | 6.12719 | 1357 ft | 2 kts | 17° |
| 2026-05-05 19:07 | 46.24938 | 6.12727 | 1356 ft | 5 kts | 11° |
| 2026-05-05 19:07 | 46.24973 | 6.12718 | 1357 ft | 5 kts | 330° |
| 2026-05-05 19:08 | 46.24991 | 6.12672 | 1359 ft | 6 kts | 280° |
| 2026-05-05 19:08 | 46.24976 | 6.12612 | 1357 ft | 8 kts | 234° |
| 2026-05-05 19:08 | 46.24913 | 6.12523 | 1358 ft | 30 kts | 222° |
| 2026-05-05 19:08 | 46.24589 | 6.12049 | 1369 ft | 98 kts | 226° |
| 2026-05-05 19:09 | 46.23978 | 6.11176 | 1380 ft | 147 kts | 223° |
| 2026-05-05 19:09 | 46.23293 | 6.10172 | 1714 ft | 159 kts | 225° |
| 2026-05-05 19:09 | 46.22584 | 6.09089 | 2390 ft | 158 kts | 225° |
| 2026-05-05 19:09 | 46.21820 | 6.07958 | 3150 ft | 158 kts | 224° |
| 2026-05-05 19:10 | 46.21087 | 6.06882 | 3564 ft | 175 kts | 225° |
| 2026-05-05 19:10 | 46.20176 | 6.05548 | 3967 ft | 199 kts | 225° |
| 2026-05-05 19:10 | 46.19141 | 6.04036 | 4498 ft | 224 kts | 225° |
| 2026-05-05 19:10 | 46.17989 | 6.02359 | 5171 ft | 244 kts | 225° |
| 2026-05-05 19:11 | 46.16783 | 6.00606 | 6203 ft | 248 kts | 225° |
| 2026-05-05 19:11 | 46.15554 | 5.98822 | 7236 ft | 253 kts | 223° |
| 2026-05-05 19:11 | 46.14114 | 5.97505 | 8212 ft | 259 kts | 201° |
| 2026-05-05 19:11 | 46.12316 | 5.97129 | 9145 ft | 268 kts | 178° |
| 2026-05-05 19:12 | 46.10504 | 5.97915 | 10015 ft | 280 kts | 154° |
| 2026-05-05 19:12 | 46.09056 | 5.99810 | 10837 ft | 294 kts | 128° |
| 2026-05-05 19:12 | 46.08002 | 6.02458 | 11267 ft | 317 kts | 122° |
| 2026-05-05 19:12 | 46.06915 | 6.05364 | 11531 ft | 340 kts | 125° |
| 2026-05-05 19:13 | 46.05500 | 6.07798 | 11780 ft | 352 kts | 141° |
| 2026-05-05 19:13 | 46.03658 | 6.10175 | 12408 ft | 360 kts | 142° |
| 2026-05-05 19:13 | 46.01776 | 6.12595 | 13176 ft | 364 kts | 142° |
| 2026-05-05 19:13 | 45.99876 | 6.15040 | 13948 ft | 368 kts | 142° |
| 2026-05-05 19:14 | 45.97967 | 6.17500 | 14751 ft | 370 kts | 142° |
| 2026-05-05 19:14 | 45.96041 | 6.19981 | 15489 ft | 373 kts | 142° |
| 2026-05-05 19:14 | 45.94100 | 6.22476 | 15810 ft | 375 kts | 142° |
| 2026-05-05 19:14 | 45.92150 | 6.24974 | 15904 ft | 375 kts | 142° |
| 2026-05-05 19:15 | 45.90200 | 6.27471 | 15916 ft | 375 kts | 142° |
| 2026-05-05 19:15 | 45.88204 | 6.29862 | 15917 ft | 373 kts | 147° |
| 2026-05-05 19:15 | 45.86111 | 6.32077 | 15909 ft | 373 kts | 147° |
| 2026-05-05 19:15 | 45.84022 | 6.34292 | 15917 ft | 374 kts | 147° |
| 2026-05-05 19:16 | 45.81929 | 6.36515 | 15918 ft | 374 kts | 147° |
| 2026-05-05 19:16 | 45.79840 | 6.38742 | 15916 ft | 374 kts | 147° |
| 2026-05-05 19:16 | 45.77754 | 6.40967 | 15917 ft | 375 kts | 147° |
| 2026-05-05 19:16 | 45.75663 | 6.43195 | 15917 ft | 375 kts | 147° |
| 2026-05-05 19:17 | 45.73564 | 6.45419 | 15919 ft | 375 kts | 147° |
| 2026-05-05 19:17 | 45.71501 | 6.47593 | 15919 ft | 375 kts | 147° |
| 2026-05-05 19:17 | 45.69673 | 6.49517 | 15922 ft | 375 kts | 147° |
| 2026-05-05 19:17 | 45.67563 | 6.51738 | 15921 ft | 375 kts | 147° |
| 2026-05-05 19:18 | 45.65468 | 6.53947 | 15923 ft | 374 kts | 147° |
| 2026-05-05 19:18 | 45.63377 | 6.56149 | 15923 ft | 375 kts | 147° |
| 2026-05-05 19:18 | 45.61273 | 6.58359 | 15926 ft | 376 kts | 147° |
| 2026-05-05 19:18 | 45.59170 | 6.60568 | 15927 ft | 375 kts | 147° |
| 2026-05-05 19:19 | 45.57069 | 6.62779 | 15921 ft | 376 kts | 147° |
| 2026-05-05 19:19 | 45.54960 | 6.64997 | 15913 ft | 377 kts | 148° |
| 2026-05-05 19:19 | 45.52843 | 6.67219 | 15925 ft | 378 kts | 148° |
| 2026-05-05 19:19 | 45.50724 | 6.69439 | 15990 ft | 381 kts | 148° |
| 2026-05-05 19:20 | 45.48579 | 6.71683 | 16702 ft | 383 kts | 148° |
| 2026-05-05 19:20 | 45.46425 | 6.73933 | 17458 ft | 386 kts | 148° |
| 2026-05-05 19:20 | 45.44244 | 6.76196 | 18172 ft | 390 kts | 148° |
| 2026-05-05 19:20 | 45.42021 | 6.78451 | 18874 ft | 394 kts | 149° |
| 2026-05-05 19:21 | 45.39769 | 6.80699 | 19558 ft | 397 kts | 149° |
| 2026-05-05 19:21 | 45.37501 | 6.82953 | 19846 ft | 397 kts | 149° |
| 2026-05-05 19:21 | 45.35242 | 6.85205 | 19930 ft | 396 kts | 149° |
| 2026-05-05 19:21 | 45.32982 | 6.87459 | 19950 ft | 396 kts | 149° |
| 2026-05-05 19:22 | 45.30728 | 6.89710 | 19958 ft | 396 kts | 149° |
| 2026-05-05 19:22 | 45.28438 | 6.91874 | 19955 ft | 393 kts | 155° |
| 2026-05-05 19:22 | 45.25966 | 6.93485 | 19967 ft | 389 kts | 164° |
| 2026-05-05 19:22 | 45.23402 | 6.94438 | 19970 ft | 384 kts | 174° |
| 2026-05-05 19:23 | 45.20755 | 6.94880 | 19972 ft | 382 kts | 177° |
| 2026-05-05 19:23 | 45.18118 | 6.95281 | 19977 ft | 381 kts | 177° |
| 2026-05-05 19:23 | 45.15480 | 6.95694 | 19980 ft | 382 kts | 177° |
| 2026-05-05 19:23 | 45.12841 | 6.96113 | 19979 ft | 382 kts | 177° |
| 2026-05-05 19:24 | 45.10199 | 6.96537 | 19980 ft | 382 kts | 177° |
| 2026-05-05 19:24 | 45.07556 | 6.96962 | 19983 ft | 382 kts | 177° |
| 2026-05-05 19:24 | 45.04921 | 6.97379 | 19981 ft | 381 kts | 177° |
| 2026-05-05 19:24 | 45.02283 | 6.97790 | 19979 ft | 381 kts | 177° |
| 2026-05-05 19:25 | 44.99646 | 6.98197 | 19963 ft | 381 kts | 177° |
| 2026-05-05 19:25 | 44.97010 | 6.98598 | 19950 ft | 381 kts | 177° |
| 2026-05-05 19:25 | 44.94373 | 6.99004 | 19963 ft | 381 kts | 177° |
| 2026-05-05 19:25 | 44.91743 | 6.99416 | 19960 ft | 380 kts | 177° |
| 2026-05-05 19:26 | 44.89117 | 6.99832 | 19961 ft | 379 kts | 177° |
| 2026-05-05 19:26 | 44.86486 | 7.00247 | 19957 ft | 380 kts | 177° |
| 2026-05-05 19:26 | 44.83859 | 7.00656 | 19965 ft | 380 kts | 177° |
| 2026-05-05 19:26 | 44.81226 | 7.01063 | 19967 ft | 380 kts | 177° |
| 2026-05-05 19:27 | 44.78594 | 7.01502 | 19967 ft | 381 kts | 176° |
| 2026-05-05 19:27 | 44.76014 | 7.02051 | 19963 ft | 380 kts | 175° |
| 2026-05-05 19:27 | 44.73408 | 7.02682 | 19966 ft | 380 kts | 174° |
| 2026-05-05 19:27 | 44.70807 | 7.03346 | 19966 ft | 380 kts | 174° |
| 2026-05-05 19:28 | 44.68209 | 7.04012 | 19972 ft | 379 kts | 174° |
| 2026-05-05 19:28 | 44.65610 | 7.04666 | 19968 ft | 380 kts | 174° |
| 2026-05-05 19:28 | 44.63007 | 7.05302 | 19968 ft | 380 kts | 174° |
| 2026-05-05 19:28 | 44.60404 | 7.05930 | 19965 ft | 380 kts | 174° |
| 2026-05-05 19:29 | 44.57798 | 7.06552 | 19967 ft | 380 kts | 175° |
| 2026-05-05 19:29 | 44.55189 | 7.07165 | 19971 ft | 380 kts | 174° |
| 2026-05-05 19:29 | 44.52585 | 7.07777 | 19967 ft | 379 kts | 174° |
| 2026-05-05 19:29 | 44.49985 | 7.08389 | 19970 ft | 379 kts | 174° |
| 2026-05-05 19:30 | 44.47381 | 7.09004 | 19965 ft | 379 kts | 174° |
| 2026-05-05 19:30 | 44.44785 | 7.09623 | 19967 ft | 379 kts | 174° |
| 2026-05-05 19:30 | 44.42186 | 7.10238 | 19971 ft | 379 kts | 174° |
| 2026-05-05 19:30 | 44.39583 | 7.10850 | 19969 ft | 379 kts | 174° |
| 2026-05-05 19:31 | 44.36981 | 7.11463 | 19967 ft | 380 kts | 175° |
| 2026-05-05 19:31 | 44.34376 | 7.12077 | 19964 ft | 380 kts | 175° |
| 2026-05-05 19:31 | 44.31772 | 7.12687 | 19963 ft | 379 kts | 175° |
| 2026-05-05 19:31 | 44.29170 | 7.13294 | 19961 ft | 379 kts | 175° |
| 2026-05-05 19:32 | 44.26567 | 7.13904 | 19973 ft | 379 kts | 175° |
| 2026-05-05 19:32 | 44.23965 | 7.14516 | 19973 ft | 379 kts | 175° |
| 2026-05-05 19:32 | 44.21383 | 7.15308 | 19975 ft | 383 kts | 168° |
| 2026-05-05 19:32 | 44.18876 | 7.16624 | 19938 ft | 386 kts | 162° |
| 2026-05-05 19:33 | 44.16389 | 7.18093 | 18952 ft | 394 kts | 162° |
| 2026-05-05 19:33 | 44.13840 | 7.19583 | 18400 ft | 399 kts | 161° |
| 2026-05-05 19:33 | 44.11264 | 7.21086 | 18159 ft | 403 kts | 162° |
| 2026-05-05 19:33 | 44.08679 | 7.22598 | 17886 ft | 402 kts | 161° |
| 2026-05-05 19:34 | 44.06104 | 7.24111 | 17591 ft | 399 kts | 162° |
| 2026-05-05 19:34 | 44.03558 | 7.25609 | 16797 ft | 395 kts | 161° |
| 2026-05-05 19:34 | 44.01065 | 7.27071 | 16022 ft | 393 kts | 161° |
| 2026-05-05 19:35 | 43.96056 | 7.29995 | 15115 ft | 391 kts | 161° |
| 2026-05-05 19:35 | 43.93541 | 7.31454 | 14868 ft | 391 kts | 161° |
| 2026-05-05 19:35 | 43.91036 | 7.32909 | 14611 ft | 390 kts | 161° |
| 2026-05-05 19:35 | 43.88534 | 7.34360 | 14385 ft | 389 kts | 161° |
| 2026-05-05 19:36 | 43.86040 | 7.35811 | 14139 ft | 388 kts | 161° |
| 2026-05-05 19:36 | 43.83592 | 7.37409 | 13909 ft | 391 kts | 154° |
| 2026-05-05 19:36 | 43.81338 | 7.39544 | 13752 ft | 395 kts | 145° |
| 2026-05-05 19:36 | 43.79206 | 7.41942 | 13485 ft | 394 kts | 145° |
| 2026-05-05 19:37 | 43.77076 | 7.44330 | 13210 ft | 394 kts | 145° |
| 2026-05-05 19:37 | 43.74948 | 7.46703 | 12948 ft | 392 kts | 145° |
| 2026-05-05 19:37 | 43.72825 | 7.49068 | 12683 ft | 391 kts | 145° |
| 2026-05-05 19:37 | 43.70727 | 7.51447 | 12423 ft | 391 kts | 142° |
| 2026-05-05 19:38 | 43.68871 | 7.54200 | 12164 ft | 394 kts | 131° |
| 2026-05-05 19:38 | 43.67381 | 7.57387 | 11911 ft | 396 kts | 121° |
| 2026-05-05 19:38 | 43.66298 | 7.60898 | 11642 ft | 399 kts | 112° |
| 2026-05-05 19:38 | 43.65377 | 7.64506 | 11384 ft | 398 kts | 112° |
| 2026-05-05 19:39 | 43.64457 | 7.68106 | 11154 ft | 396 kts | 112° |
| 2026-05-05 19:39 | 43.64260 | 7.68875 | 11094 ft | 396 kts | 112° |
| 2026-05-05 19:39 | 43.63712 | 7.71013 | 10975 ft | 395 kts | 112° |
| 2026-05-05 19:39 | 43.62795 | 7.74585 | 10933 ft | 394 kts | 112° |
| 2026-05-05 19:40 | 43.61825 | 7.78117 | 10933 ft | 392 kts | 118° |
| 2026-05-05 19:40 | 43.60338 | 7.81176 | 10394 ft | 378 kts | 137° |
| 2026-05-05 19:40 | 43.58262 | 7.83204 | 10138 ft | 355 kts | 159° |
| 2026-05-05 19:40 | 43.55998 | 7.83969 | 9998 ft | 330 kts | 180° |
| 2026-05-05 19:41 | 43.53821 | 7.83493 | 9888 ft | 310 kts | 203° |
| 2026-05-05 19:41 | 43.52044 | 7.81939 | 9400 ft | 305 kts | 225° |
| 2026-05-05 19:41 | 43.50664 | 7.79653 | 8395 ft | 318 kts | 233° |
| 2026-05-05 19:41 | 43.49317 | 7.77146 | 7452 ft | 329 kts | 233° |
| 2026-05-05 19:42 | 43.47983 | 7.74630 | 7105 ft | 320 kts | 233° |
| 2026-05-05 19:42 | 43.46705 | 7.72212 | 6963 ft | 305 kts | 233° |
| 2026-05-05 19:42 | 43.45492 | 7.69912 | 6930 ft | 288 kts | 233° |
| 2026-05-05 19:42 | 43.44347 | 7.67736 | 6946 ft | 272 kts | 233° |
| 2026-05-05 19:43 | 43.43267 | 7.65682 | 6947 ft | 257 kts | 233° |
| 2026-05-05 19:43 | 43.42250 | 7.63745 | 6938 ft | 243 kts | 233° |
| 2026-05-05 19:43 | 43.41288 | 7.61910 | 6943 ft | 229 kts | 233° |
| 2026-05-05 19:43 | 43.40389 | 7.60193 | 6944 ft | 215 kts | 233° |
| 2026-05-05 19:44 | 43.39521 | 7.58531 | 6947 ft | 213 kts | 233° |
| 2026-05-05 19:44 | 43.38657 | 7.56870 | 6936 ft | 214 kts | 233° |
| 2026-05-05 19:44 | 43.37796 | 7.55205 | 6936 ft | 215 kts | 233° |
| 2026-05-05 19:44 | 43.36928 | 7.53509 | 6934 ft | 217 kts | 233° |
| 2026-05-05 19:45 | 43.36391 | 7.52459 | 6937 ft | 217 kts | 233° |
| 2026-05-05 19:45 | 43.35523 | 7.50757 | 6937 ft | 217 kts | 233° |
| 2026-05-05 19:45 | 43.34642 | 7.49057 | 6975 ft | 222 kts | 234° |
| 2026-05-05 19:45 | 43.33737 | 7.47388 | 6965 ft | 211 kts | 236° |
| 2026-05-05 19:46 | 43.33229 | 7.45571 | 6962 ft | 206 kts | 267° |
| 2026-05-05 19:46 | 43.33419 | 7.43625 | 6703 ft | 207 kts | 281° |
| 2026-05-05 19:46 | 43.33793 | 7.41711 | 6386 ft | 207 kts | 283° |
| 2026-05-05 19:46 | 43.34184 | 7.39827 | 6182 ft | 201 kts | 283° |
| 2026-05-05 19:47 | 43.34565 | 7.38005 | 5974 ft | 197 kts | 283° |
| 2026-05-05 19:47 | 43.34943 | 7.36205 | 5710 ft | 196 kts | 283° |
| 2026-05-05 19:47 | 43.35319 | 7.34404 | 5421 ft | 196 kts | 283° |
| 2026-05-05 19:47 | 43.35695 | 7.32598 | 5136 ft | 197 kts | 283° |
| 2026-05-05 19:48 | 43.36071 | 7.30786 | 4852 ft | 197 kts | 283° |
| 2026-05-05 19:48 | 43.36441 | 7.28995 | 4553 ft | 197 kts | 283° |
| 2026-05-05 19:48 | 43.36809 | 7.27197 | 4316 ft | 193 kts | 283° |
| 2026-05-05 19:48 | 43.37173 | 7.25426 | 4065 ft | 191 kts | 283° |
| 2026-05-05 19:49 | 43.37535 | 7.23673 | 3795 ft | 191 kts | 283° |
| 2026-05-05 19:49 | 43.37899 | 7.21919 | 3549 ft | 191 kts | 283° |
| 2026-05-05 19:49 | 43.38259 | 7.20163 | 3376 ft | 191 kts | 283° |
| 2026-05-05 19:49 | 43.38637 | 7.18419 | 3243 ft | 191 kts | 290° |
| 2026-05-05 19:50 | 43.39445 | 7.16975 | 3148 ft | 195 kts | 323° |
| 2026-05-05 19:50 | 43.40731 | 7.16372 | 3077 ft | 201 kts | 357° |
| 2026-05-05 19:50 | 43.42133 | 7.16409 | 3091 ft | 202 kts | 359° |
| 2026-05-05 19:50 | 43.43535 | 7.16406 | 3085 ft | 201 kts | 358° |
| 2026-05-05 19:51 | 43.44935 | 7.16387 | 3091 ft | 201 kts | 358° |
| 2026-05-05 19:51 | 43.46337 | 7.16367 | 3085 ft | 201 kts | 358° |
| 2026-05-05 19:51 | 43.47736 | 7.16337 | 3112 ft | 203 kts | 357° |
| 2026-05-05 19:51 | 43.49138 | 7.16297 | 3083 ft | 201 kts | 357° |
| 2026-05-05 19:52 | 43.50537 | 7.16249 | 3083 ft | 201 kts | 357° |
| 2026-05-05 19:52 | 43.51935 | 7.16195 | 2997 ft | 200 kts | 356° |
| 2026-05-05 19:52 | 43.53307 | 7.16150 | 2542 ft | 196 kts | 358° |
| 2026-05-05 19:52 | 43.54668 | 7.16088 | 2137 ft | 193 kts | 358° |
| 2026-05-05 19:53 | 43.55992 | 7.16002 | 2007 ft | 191 kts | 358° |
| 2026-05-05 19:53 | 43.57321 | 7.15907 | 2009 ft | 192 kts | 357° |
| 2026-05-05 19:53 | 43.58643 | 7.15812 | 2009 ft | 191 kts | 357° |
| 2026-05-05 19:53 | 43.59959 | 7.15813 | 1943 ft | 192 kts | 3° |
| 2026-05-05 19:54 | 43.61281 | 7.15983 | 1596 ft | 189 kts | 11° |
| 2026-05-05 19:54 | 43.62548 | 7.16493 | 1482 ft | 187 kts | 30° |
| 2026-05-05 19:54 | 43.63492 | 7.17651 | 1218 ft | 186 kts | 50° |
| 2026-05-05 19:54 | 43.64282 | 7.19036 | 643 ft | 182 kts | 53° |
| 2026-05-05 19:55 | 43.65136 | 7.20318 | 174 ft | 182 kts | 45° |
| 2026-05-05 19:55 | 43.65923 | 7.21438 | 21 ft | 125 kts | 44° |
| 2026-05-05 19:55 | 43.66333 | 7.21981 | 26 ft | 38 kts | 35° |
| 2026-05-05 19:55 | 43.66396 | 7.22003 | 23 ft | 14 kts | 2° |
| 2026-05-05 19:56 | 43.66483 | 7.22040 | 22 ft | 1 kts | 25° |
| 2026-05-05 19:56 | 43.66502 | 7.22049 | 22 ft | 4 kts | 13° |
| 2026-05-05 19:56 | 43.66510 | 7.22050 | 22 ft | 0 kts | 8° |
| 2026-05-05 19:58 | 43.66515 | 7.22051 | 22 ft | 3 kts | 2° |
| 2026-05-05 19:58 | 43.66544 | 7.22025 | 23 ft | 7 kts | 297° |
| 2026-05-05 19:58 | 43.66536 | 7.21950 | 23 ft | 10 kts | 232° |
| 2026-05-05 19:58 | 43.66479 | 7.21862 | 22 ft | 11 kts | 226° |
| 2026-05-05 19:59 | 43.66473 | 7.21852 | 22 ft | 2 kts | 226° |
| 2026-05-05 19:59 | 43.66460 | 7.21833 | 22 ft | 3 kts | 226° |
| 2026-05-05 19:59 | 43.66440 | 7.21805 | 22 ft | 5 kts | 226° |
| 2026-05-05 19:59 | 43.66415 | 7.21769 | 22 ft | 6 kts | 227° |
| 2026-05-05 20:00 | 43.66384 | 7.21726 | 23 ft | 7 kts | 224° |
| 2026-05-05 20:00 | 43.66348 | 7.21678 | 22 ft | 8 kts | 224° |
| 2026-05-05 20:00 | 43.66307 | 7.21623 | 22 ft | 9 kts | 222° |
| 2026-05-05 20:00 | 43.66259 | 7.21566 | 22 ft | 10 kts | 223° |
| 2026-05-05 20:01 | 43.66209 | 7.21499 | 22 ft | 11 kts | 224° |
| 2026-05-05 20:01 | 43.66154 | 7.21424 | 22 ft | 12 kts | 225° |
| 2026-05-05 20:01 | 43.66094 | 7.21341 | 22 ft | 13 kts | 226° |
| 2026-05-05 20:01 | 43.66030 | 7.21250 | 22 ft | 14 kts | 225° |
| 2026-05-05 20:02 | 43.65960 | 7.21154 | 22 ft | 15 kts | 223° |
| 2026-05-05 20:02 | 43.65885 | 7.21054 | 22 ft | 16 kts | 225° |
| 2026-05-05 20:02 | 43.65814 | 7.20954 | 22 ft | 12 kts | 226° |
| 2026-05-05 20:02 | 43.65807 | 7.20869 | 22 ft | 9 kts | 294° |
| 2026-05-05 20:03 | 43.65868 | 7.20839 | 23 ft | 10 kts | 354° |
| 2026-05-05 20:03 | 43.65942 | 7.20833 | 22 ft | 11 kts | 357° |
| 2026-05-05 20:03 | 43.66023 | 7.20817 | 22 ft | 12 kts | 349° |
| 2026-05-05 20:03 | 43.66087 | 7.20801 | 22 ft | 5 kts | 350° |
| 2026-05-05 20:04 | 43.66123 | 7.20781 | 23 ft | 6 kts | 314° |
| 2026-05-05 20:04 | 43.66125 | 7.20730 | 22 ft | 6 kts | 261° |
| 2026-05-05 20:04 | 43.66120 | 7.20689 | 22 ft | 0 kts | 260° |
| 2026-05-05 20:04 | 43.66119 | 7.20688 | 22 ft | 0 kts | 260° |